Sardinia Regina — IBMS — position and weather

sailwx.info

Track history (hours):
 
Tides and Currents Weather Stations Pressure Air Temp Water Temp Dewpoint Dewpoint Depression Visibility Wind Speed Wind Dir Waves Ship Positions

Sardinia Regina

Last reported at 2016-Jun-25 19:33 UTC. Time now 2016-Jun-25 19:41 UTC.
Position N 43°33' E 010°18'.

Length 146 m; draft 5 m.

Type: Passenger vessel. MMSI: 247079000.

Date/timePositionNaut miles runAvg speedWind from/ knotsBaromVisibWave heightAir tempDewpointWater temp
2016-Jun-25 19:33N 43°33' E 010°18'0 0.2
2016-Jun-25 18:34N 43°33' E 010°18'1413.6
2016-Jun-25 17:34N 43°23' E 010°05'1616.1
2016-Jun-25 16:34N 43°12' E 009°49'1715.6
2016-Jun-25 15:28N 42°57' E 009°37'11 3.7
2016-Jun-25 12:34N 42°46' E 009°35'1818.1
2016-Jun-25 11:34N 42°58' E 009°55'1817.9
2016-Jun-25 10:34N 43°14' E 010°04'1818.0
2016-Jun-25 09:33N 43°31' E 010°13'4 4.0
2016-Jun-25 08:33N 43°33' E 010°18'0 0.0
2016-Jun-25 07:33N 43°33' E 010°18'0 0.0
2016-Jun-25 06:33N 43°33' E 010°18'0 0.2
2016-Jun-25 05:33N 43°33' E 010°18'5 5.4
2016-Jun-25 04:33N 43°29' E 010°13'1515.0
2016-Jun-25 03:33N 43°14' E 010°09'1514.6
2016-Jun-25 02:33N 42°60' E 010°04'3 0.1
2016-Jun-23 21:34N 42°57' E 010°03'1818.3
2016-Jun-23 20:34N 43°15' E 010°08'1717.1
2016-Jun-23 19:33N 43°32' E 010°15'3 2.6
2016-Jun-23 18:33N 43°33' E 010°18'0 0.0
2016-Jun-23 17:33N 43°33' E 010°18'0 0.0
2016-Jun-23 16:33N 43°33' E 010°18'1 1.4
2016-Jun-23 15:33N 43°32' E 010°17'1414.3
2016-Jun-23 14:33N 43°22' E 010°03'1616.5
2016-Jun-23 13:33N 43°10' E 009°47'1616.1
2016-Jun-23 12:33N 42°56' E 009°37'1515.3
2016-Jun-23 11:33N 42°42' E 009°28'11 4.9
2016-Jun-23 09:18N 42°52' E 009°34'1318.0
2016-Jun-23 08:33N 43°04' E 009°41'1817.9
2016-Jun-23 07:33N 43°18' E 009°57'2211.0
2016-Jun-23 05:33N 43°33' E 010°18'0 0.0
2016-Jun-23 04:33N 43°33' E 010°18'9 9.2
2016-Jun-23 03:33N 43°25' E 010°12'1716.6
2016-Jun-23 02:33N 43°09' E 010°07'1616.5
2016-Jun-23 01:33N 42°53' E 010°01'1716.7
2016-Jun-23 00:33N 42°37' E 009°58'1616.4
2016-Jun-22 23:33N 42°20' E 009°55'8 0.3
2016-Jun-21 23:20N 42°29' E 009°55'1417.9
2016-Jun-21 22:33N 42°42' E 009°58'1817.8
2016-Jun-21 21:33N 42°60' E 010°03'1818.2
2016-Jun-21 20:33N 43°17' E 010°09'1615.8
2016-Jun-21 19:33N 43°32' E 010°16'2 1.7
2016-Jun-21 18:33N 43°33' E 010°18'0 0.0
2016-Jun-21 17:33N 43°33' E 010°18'0 0.0
2016-Jun-21 16:33N 43°33' E 010°18'0 0.0
2016-Jun-21 15:33N 43°33' E 010°18'0 0.0
2016-Jun-21 14:33N 43°33' E 010°18'0 0.0
2016-Jun-21 13:33N 43°33' E 010°18'0 0.0
2016-Jun-21 12:33N 43°33' E 010°18'0 0.0
2016-Jun-21 11:33N 43°33' E 010°18'0 0.0
2016-Jun-21 10:33N 43°33' E 010°18'0 0.0
2016-Jun-21 09:33N 43°33' E 010°18'0 0.0
2016-Jun-21 08:33N 43°33' E 010°18'0 0.0
2016-Jun-21 07:33N 43°33' E 010°18'0 0.0
2016-Jun-21 06:33N 43°33' E 010°18'3 1.4
2016-Jun-21 04:33N 43°31' E 010°15'1413.5
2016-Jun-21 03:33N 43°18' E 010°10'1514.7
2016-Jun-21 02:33N 43°04' E 010°05'1515.2
2016-Jun-21 01:33N 42°49' E 010°00'3115.3
2016-Jun-20 23:33N 42°19' E 009°55'37 2.7
2016-Jun-20 09:33N 42°55' E 010°01'1818.1
2016-Jun-20 08:33N 43°13' E 010°08'1817.8
2016-Jun-20 07:33N 43°30' E 010°13'5 4.7
2016-Jun-20 06:33N 43°33' E 010°18'0 0.0
2016-Jun-20 05:33N 43°33' E 010°18'4 3.7
2016-Jun-20 04:33N 43°30' E 010°15'1615.6
2016-Jun-20 03:34N 43°15' E 010°09'1514.9
2016-Jun-20 02:33N 43°01' E 010°04'2 0.1
2016-Jun-18 21:14N 43°03' E 010°02'1217.2
2016-Jun-18 20:33N 43°14' E 010°06'1716.7
2016-Jun-18 19:33N 43°30' E 010°12'6 5.5
2016-Jun-18 18:33N 43°33' E 010°18'0 0.0
2016-Jun-18 17:34N 43°33' E 010°18'0 0.0
2016-Jun-18 16:33N 43°33' E 010°18'1 0.5
2016-Jun-18 15:33N 43°33' E 010°17'1312.9
2016-Jun-18 14:33N 43°23' E 010°05'1615.7
2016-Jun-18 13:33N 43°12' E 009°50'10 1.9
2016-Jun-18 08:33N 43°05' E 009°41'1716.8
2016-Jun-18 07:34N 43°18' E 009°56'1717.2
2016-Jun-18 06:34N 43°30' E 010°12'5 5.3
2016-Jun-18 05:33N 43°33' E 010°18'0 0.0
2016-Jun-18 04:33N 43°33' E 010°18'10 9.8
2016-Jun-18 03:34N 43°25' E 010°12'1616.2
2016-Jun-18 02:33N 43°09' E 010°06'20 0.7
2016-Jun-16 22:29N 42°49' E 009°60'1717.9
2016-Jun-16 21:33N 43°06' E 010°05'1817.8
2016-Jun-16 20:33N 43°23' E 010°10'1211.6
2016-Jun-16 19:33N 43°33' E 010°18'0 0.0
2016-Jun-16 18:33N 43°33' E 010°18'0 0.0
2016-Jun-16 17:33N 43°33' E 010°18'0 0.0
2016-Jun-16 16:34N 43°33' E 010°18'7 6.6
2016-Jun-16 15:34N 43°28' E 010°12'1817.6
2016-Jun-16 14:33N 43°16' E 009°54'1717.4
2016-Jun-16 13:34N 43°02' E 009°40'10 2.4
2016-Jun-16 09:16N 42°54' E 009°48'1617.2
2016-Jun-16 08:20N 43°07' E 010°01'1417.9
2016-Jun-16 07:33N 43°20' E 010°07'1514.7
2016-Jun-16 06:34N 43°33' E 010°17'1 0.7
2016-Jun-16 05:30N 43°33' E 010°18'0 0.0
2016-Jun-16 04:33N 43°33' E 010°18'9 8.7
2016-Jun-16 03:34N 43°26' E 010°12'1717.1
2016-Jun-16 02:33N 43°09' E 010°06'  
Track history (hours):
 
Tides and Currents Weather Stations Pressure Air Temp Water Temp Dewpoint Dewpoint Depression Visibility Wind Speed Wind Dir Waves Ship Positions

Sardinia Regina

Last reported at 2016-Jun-25 19:33 UTC. Time now 2016-Jun-25 19:41 UTC.
Position N 43°33' E 010°18'.

Length 146 m; draft 5 m.

Type: Passenger vessel. MMSI: 247079000.

Date/timePositionNaut miles runAvg speedWind from/ knotsBaromVisibWave heightAir tempDewpointWater temp
2016-Jun-25 19:33N 43°33' E 010°18'0 0.2
2016-Jun-25 18:34N 43°33' E 010°18'1413.6
2016-Jun-25 17:34N 43°23' E 010°05'1616.1
2016-Jun-25 16:34N 43°12' E 009°49'1715.6
2016-Jun-25 15:28N 42°57' E 009°37'11 3.7
2016-Jun-25 12:34N 42°46' E 009°35'1818.1
2016-Jun-25 11:34N 42°58' E 009°55'1817.9
2016-Jun-25 10:34N 43°14' E 010°04'1818.0
2016-Jun-25 09:33N 43°31' E 010°13'4 4.0
2016-Jun-25 08:33N 43°33' E 010°18'0 0.0
2016-Jun-25 07:33N 43°33' E 010°18'0 0.0
2016-Jun-25 06:33N 43°33' E 010°18'0 0.2
2016-Jun-25 05:33N 43°33' E 010°18'5 5.4
2016-Jun-25 04:33N 43°29' E 010°13'1515.0
2016-Jun-25 03:33N 43°14' E 010°09'1514.6
2016-Jun-25 02:33N 42°60' E 010°04'3 0.1
2016-Jun-23 21:34N 42°57' E 010°03'1818.3
2016-Jun-23 20:34N 43°15' E 010°08'1717.1
2016-Jun-23 19:33N 43°32' E 010°15'3 2.6
2016-Jun-23 18:33N 43°33' E 010°18'0 0.0
2016-Jun-23 17:33N 43°33' E 010°18'0 0.0
2016-Jun-23 16:33N 43°33' E 010°18'1 1.4
2016-Jun-23 15:33N 43°32' E 010°17'1414.3
2016-Jun-23 14:33N 43°22' E 010°03'1616.5
2016-Jun-23 13:33N 43°10' E 009°47'1616.1
2016-Jun-23 12:33N 42°56' E 009°37'1515.3
2016-Jun-23 11:33N 42°42' E 009°28'11 4.9
2016-Jun-23 09:18N 42°52' E 009°34'1318.0
2016-Jun-23 08:33N 43°04' E 009°41'1817.9
2016-Jun-23 07:33N 43°18' E 009°57'2211.0
2016-Jun-23 05:33N 43°33' E 010°18'0 0.0
2016-Jun-23 04:33N 43°33' E 010°18'9 9.2
2016-Jun-23 03:33N 43°25' E 010°12'1716.6
2016-Jun-23 02:33N 43°09' E 010°07'1616.5
2016-Jun-23 01:33N 42°53' E 010°01'1716.7
2016-Jun-23 00:33N 42°37' E 009°58'1616.4
2016-Jun-22 23:33N 42°20' E 009°55'8 0.3
2016-Jun-21 23:20N 42°29' E 009°55'1417.9
2016-Jun-21 22:33N 42°42' E 009°58'1817.8
2016-Jun-21 21:33N 42°60' E 010°03'1818.2
2016-Jun-21 20:33N 43°17' E 010°09'1615.8
2016-Jun-21 19:33N 43°32' E 010°16'2 1.7
2016-Jun-21 18:33N 43°33' E 010°18'0 0.0
2016-Jun-21 17:33N 43°33' E 010°18'0 0.0
2016-Jun-21 16:33N 43°33' E 010°18'0 0.0
2016-Jun-21 15:33N 43°33' E 010°18'0 0.0
2016-Jun-21 14:33N 43°33' E 010°18'0 0.0
2016-Jun-21 13:33N 43°33' E 010°18'0 0.0
2016-Jun-21 12:33N 43°33' E 010°18'0 0.0
2016-Jun-21 11:33N 43°33' E 010°18'0 0.0
2016-Jun-21 10:33N 43°33' E 010°18'0 0.0
2016-Jun-21 09:33N 43°33' E 010°18'0 0.0
2016-Jun-21 08:33N 43°33' E 010°18'0 0.0
2016-Jun-21 07:33N 43°33' E 010°18'0 0.0
2016-Jun-21 06:33N 43°33' E 010°18'3 1.4
2016-Jun-21 04:33N 43°31' E 010°15'1413.5
2016-Jun-21 03:33N 43°18' E 010°10'1514.7
2016-Jun-21 02:33N 43°04' E 010°05'1515.2
2016-Jun-21 01:33N 42°49' E 010°00'3115.3
2016-Jun-20 23:33N 42°19' E 009°55'37 2.7
2016-Jun-20 09:33N 42°55' E 010°01'1818.1
2016-Jun-20 08:33N 43°13' E 010°08'1817.8
2016-Jun-20 07:33N 43°30' E 010°13'5 4.7
2016-Jun-20 06:33N 43°33' E 010°18'0 0.0
2016-Jun-20 05:33N 43°33' E 010°18'4 3.7
2016-Jun-20 04:33N 43°30' E 010°15'1615.6
2016-Jun-20 03:34N 43°15' E 010°09'1514.9
2016-Jun-20 02:33N 43°01' E 010°04'2 0.1
2016-Jun-18 21:14N 43°03' E 010°02'1217.2
2016-Jun-18 20:33N 43°14' E 010°06'1716.7
2016-Jun-18 19:33N 43°30' E 010°12'6 5.5
2016-Jun-18 18:33N 43°33' E 010°18'0 0.0
2016-Jun-18 17:34N 43°33' E 010°18'0 0.0
2016-Jun-18 16:33N 43°33' E 010°18'1 0.5
2016-Jun-18 15:33N 43°33' E 010°17'1312.9
2016-Jun-18 14:33N 43°23' E 010°05'1615.7
2016-Jun-18 13:33N 43°12' E 009°50'10 1.9
2016-Jun-18 08:33N 43°05' E 009°41'1716.8
2016-Jun-18 07:34N 43°18' E 009°56'1717.2
2016-Jun-18 06:34N 43°30' E 010°12'5 5.3
2016-Jun-18 05:33N 43°33' E 010°18'0 0.0
2016-Jun-18 04:33N 43°33' E 010°18'10 9.8
2016-Jun-18 03:34N 43°25' E 010°12'1616.2
2016-Jun-18 02:33N 43°09' E 010°06'20 0.7
2016-Jun-16 22:29N 42°49' E 009°60'1717.9
2016-Jun-16 21:33N 43°06' E 010°05'1817.8
2016-Jun-16 20:33N 43°23' E 010°10'1211.6
2016-Jun-16 19:33N 43°33' E 010°18'0 0.0
2016-Jun-16 18:33N 43°33' E 010°18'0 0.0
2016-Jun-16 17:33N 43°33' E 010°18'0 0.0
2016-Jun-16 16:34N 43°33' E 010°18'7 6.6
2016-Jun-16 15:34N 43°28' E 010°12'1817.6
2016-Jun-16 14:33N 43°16' E 009°54'1717.4
2016-Jun-16 13:34N 43°02' E 009°40'10 2.4
2016-Jun-16 09:16N 42°54' E 009°48'1617.2
2016-Jun-16 08:20N 43°07' E 010°01'1417.9
2016-Jun-16 07:33N 43°20' E 010°07'1514.7
2016-Jun-16 06:34N 43°33' E 010°17'1 0.7
2016-Jun-16 05:30N 43°33' E 010°18'0 0.0
2016-Jun-16 04:33N 43°33' E 010°18'9 8.7
2016-Jun-16 03:34N 43°26' E 010°12'1717.1
2016-Jun-16 02:33N 43°09' E 010°06'  

Dump ship's entire track history